Overview Statistics Trail Chart Weather Telemetry Raw packets
 

This is the latest recevied weather packets stored in our database for station/object I0UVN-10. If no packets are shown the sender has not sent any weather packets the latest 10 day(s).

<< 24 25 26 27 28 29 30 >>
Time Temp. Humidity Pressure Rain* Wind** Luminosity Snow
1787949631 29.44° C 43% 1020.8 hPa - - - -
1787948430 29.44° C 44% 1020.8 hPa - - - -
1787947230 29.44° C 44% 1020.9 hPa - - - -
1787946029 29.44° C 44% 1020.7 hPa - - - -
1787944829 30° C 43% 1020.4 hPa - - - -
1787943629 30° C 42% 1020 hPa - - - -
1787942434 30° C 44% 1019.9 hPa - - - -
1787941228 30° C 44% 1020.1 hPa - - - -
1787940028 30° C 43% 1020.1 hPa - - - -
1787938828 30.56° C 42% 1020 hPa - - - -
1787937626 30.56° C 40% 1020 hPa - - - -
1787936426 31.11° C 41% 1020.2 hPa - - - -
1787935222 31.11° C 40% 1020.5 hPa - - - -
1787934022 31.67° C 39% 1020.5 hPa - - - -
1787932822 31.67° C 38% 1020.6 hPa - - - -
1787931621 31.67° C 36% 1020.7 hPa - - - -
1787930421 32.22° C 34% 1020.8 hPa - - - -
1787929221 32.22° C 34% 1021 hPa - - - -
1787928020 32.22° C 34% 1021.1 hPa - - - -
1787926816 32.78° C 33% 1020.8 hPa - - - -
1787925615 32.78° C 34% 1020.4 hPa - - - -
1787924414 32.78° C 37% 1020.5 hPa - - - -
1787923214 32.78° C 37% 1020.7 hPa - - - -
1787922014 32.78° C 37% 1021 hPa - - - -
1787920813 32.22° C 42% 1021.1 hPa - - - -

* Rain since midnight (hover to see other rain measurements)
** Current wind speed in m/s (hover to see current wind gust speed)